createdAt,value
2022-08-03T00:02:13.188Z,101455.03
2022-08-03T00:04:35.222Z,101448.97
2022-08-03T00:06:57.027Z,101453.38
2022-08-03T00:09:18.969Z,101448.56
2022-08-03T00:11:40.788Z,101455.72
2022-08-03T00:14:04.527Z,101450.91
2022-08-03T00:16:26.426Z,101438.88
2022-08-03T00:18:48.325Z,101450.88
2022-08-03T00:21:10.407Z,101460.47
2022-08-03T00:23:52.096Z,101454.81
2022-08-03T00:26:14.778Z,101453.19
2022-08-03T00:28:36.593Z,101454.78
2022-08-03T00:30:58.398Z,101450.75
2022-08-03T00:33:20.259Z,101454.34
2022-08-03T00:35:50.311Z,101451.50
2022-08-03T00:38:13.013Z,101451.09
2022-08-03T00:40:35.339Z,101453.09
2022-08-03T00:43:04.721Z,101456.69
2022-08-03T00:45:34.346Z,101449.50
2022-08-03T00:47:57.052Z,101452.25
2022-08-03T00:50:22.880Z,101451.44
2022-08-03T00:52:45.603Z,101448.19
2022-08-03T00:55:08.043Z,101450.59
2022-08-03T00:57:32.625Z,101456.94
2022-08-03T00:59:54.687Z,101451.72
2022-08-03T01:02:16.871Z,101449.69
2022-08-03T01:04:38.866Z,101443.66
2022-08-03T01:07:21.872Z,101444.88
2022-08-03T01:10:17.440Z,101438.44
2022-08-03T01:12:48.712Z,101439.16
2022-08-03T01:15:29.568Z,101437.50
2022-08-03T01:18:18.666Z,101434.69
2022-08-03T01:20:47.463Z,101443.03
2022-08-03T01:23:57.174Z,101428.22
2022-08-03T01:27:05.494Z,101423.00
2022-08-03T01:30:07.639Z,101430.53
2022-08-03T01:33:03.497Z,101431.69
2022-08-03T01:35:38.303Z,101422.44
2022-08-03T01:38:07.273Z,101426.44
2022-08-03T01:40:34.416Z,101420.78
2022-08-03T01:42:59.622Z,101428.38
2022-08-03T01:45:22.882Z,101427.16
2022-08-03T01:47:50.117Z,101426.34
2022-08-03T01:50:14.948Z,101433.53
2022-08-03T01:52:42.277Z,101429.09
2022-08-03T01:55:07.195Z,101423.50
2022-08-03T01:57:30.566Z,101419.50
2022-08-03T01:59:55.947Z,101417.50
2022-08-03T02:02:34.199Z,101418.69
2022-08-03T02:05:00.459Z,101417.91
2022-08-03T02:07:26.599Z,101413.47
2022-08-03T02:09:52.765Z,101413.47
2022-08-03T02:12:17.667Z,101420.69
2022-08-03T02:14:43.678Z,101414.28
2022-08-03T02:17:08.400Z,101410.66
2022-08-03T02:19:35.723Z,101405.84
2022-08-03T02:22:01.280Z,101412.66
2022-08-03T02:24:24.183Z,101407.81
2022-08-03T02:26:49.222Z,101404.22
2022-08-03T02:29:21.567Z,101412.97
2022-08-03T02:32:04.505Z,101410.94
2022-08-03T02:34:29.811Z,101408.56
2022-08-03T02:36:54.269Z,101401.75
2022-08-03T02:39:20.777Z,101400.13
2022-08-03T02:41:50.151Z,101403.72
2022-08-03T02:44:14.893Z,101400.13
2022-08-03T02:46:43.131Z,101396.94
2022-08-03T02:49:40.595Z,101399.34
2022-08-03T02:51:53.269Z,101395.38
2022-08-03T02:54:19.911Z,101396.16
2022-08-03T02:56:43.294Z,101395.38
2022-08-03T02:59:07.834Z,101403.34
2022-08-03T03:01:31.461Z,101394.16
2022-08-03T03:03:57.450Z,101389.28
2022-08-03T03:06:21.251Z,101386.50
2022-08-03T03:08:47.264Z,101392.94
2022-08-03T03:11:11.251Z,101396.88
2022-08-03T03:13:34.105Z,101396.47
2022-08-03T03:16:01.495Z,101394.50
2022-08-03T03:18:25.399Z,101397.69
2022-08-03T03:20:50.386Z,101404.09
2022-08-03T03:23:14.688Z,101401.31
2022-08-03T03:25:37.844Z,101392.09
2022-08-03T03:28:02.926Z,101395.28
2022-08-03T03:30:26.404Z,101399.25
2022-08-03T03:32:48.982Z,101393.66
2022-08-03T03:35:13.699Z,101398.47
2022-08-03T03:37:35.970Z,101390.88
2022-08-03T03:39:58.204Z,101394.06
2022-08-03T03:42:20.876Z,101389.28
2022-08-03T03:44:42.798Z,101391.28
2022-08-03T03:47:04.886Z,101397.25
2022-08-03T03:49:27.693Z,101392.84
2022-08-03T03:51:54.920Z,101400.03
2022-08-03T03:54:16.883Z,101392.44
2022-08-03T03:56:38.725Z,101391.66
2022-08-03T03:59:00.656Z,101390.47
2022-08-03T04:01:23.273Z,101396.88
2022-08-03T04:03:45.728Z,101398.03
2022-08-03T04:06:26.666Z,101396.44
2022-08-03T04:09:06.994Z,101400.84
2022-08-03T04:11:38.320Z,101401.25
2022-08-03T04:14:17.919Z,101392.06
2022-08-03T04:16:47.138Z,101399.25
2022-08-03T04:19:21.180Z,101404.47
2022-08-03T04:21:51.897Z,101397.69
2022-08-03T04:24:18.186Z,101403.34
2022-08-03T04:26:43.261Z,101398.59
2022-08-03T04:29:06.618Z,101392.22
2022-08-03T04:31:30.656Z,101395.44
2022-08-03T04:33:55.627Z,101398.25
2022-08-03T04:36:23.661Z,101400.69
2022-08-03T04:39:02.668Z,101400.72
2022-08-03T04:41:27.688Z,101404.31
2022-08-03T04:43:53.814Z,101395.53
2022-08-03T04:46:16.453Z,101409.16
2022-08-03T04:48:42.363Z,101395.59
2022-08-03T04:51:06.672Z,101405.19
2022-08-03T04:53:28.699Z,101408.38
2022-08-03T04:55:50.592Z,101408.03
2022-08-03T04:58:12.678Z,101404.44
2022-08-03T05:00:34.939Z,101406.09
2022-08-03T05:02:56.965Z,101403.72
2022-08-03T05:05:18.982Z,101407.72
2022-08-03T05:07:41.081Z,101409.34
2022-08-03T05:10:14.846Z,101412.97
2022-08-03T05:12:37.901Z,101414.59
2022-08-03T05:15:00.844Z,101416.59
2022-08-03T05:17:22.613Z,101416.22
2022-08-03T05:19:44.449Z,101409.84
2022-08-03T05:22:06.256Z,101418.28
2022-08-03T05:24:28.042Z,101415.88
2022-08-03T05:26:49.858Z,101420.72
2022-08-03T05:29:11.695Z,101426.34
2022-08-03T05:31:33.536Z,101419.63
2022-08-03T05:33:57.102Z,101428.84
2022-08-03T05:36:18.916Z,101430.47
2022-08-03T05:38:40.717Z,101420.09
2022-08-03T05:41:22.507Z,101425.38
2022-08-03T05:43:46.957Z,101429.44
2022-08-03T05:46:12.165Z,101429.88
2022-08-03T05:48:34.897Z,101432.34
2022-08-03T05:50:57.168Z,101430.78
2022-08-03T05:53:19.195Z,101431.22
2022-08-03T05:55:40.973Z,101439.66
2022-08-03T05:58:03.903Z,101441.72
2022-08-03T06:00:25.816Z,101446.59
2022-08-03T06:02:47.780Z,101438.22
2022-08-03T06:05:10.903Z,101435.41
2022-08-03T06:07:33.358Z,101440.25
2022-08-03T06:10:35.272Z,101431.88
2022-08-03T06:12:37.353Z,101442.69
2022-08-03T06:14:59.200Z,101449.50
2022-08-03T06:17:21.005Z,101440.31
2022-08-03T06:19:42.875Z,101450.34
2022-08-03T06:22:05.173Z,101457.19
2022-08-03T06:24:27.266Z,101441.19
2022-08-03T06:26:51.616Z,101445.25
2022-08-03T06:29:13.428Z,101446.06
2022-08-03T06:31:35.236Z,101442.84
2022-08-03T06:34:32.155Z,101444.84
2022-08-03T06:36:39.449Z,101443.25
2022-08-03T06:39:01.386Z,101446.47
2022-08-03T06:41:23.251Z,101443.66
2022-08-03T06:44:03.444Z,101450.47
2022-08-03T06:46:26.174Z,101451.25
2022-08-03T06:48:48.364Z,101446.03
2022-08-03T06:51:10.644Z,101443.63
2022-08-03T06:53:32.639Z,101450.41
2022-08-03T06:55:55.337Z,101455.22
2022-08-03T06:58:17.252Z,101454.34
2022-08-03T07:00:39.180Z,101452.69
2022-08-03T07:03:01.021Z,101448.63
2022-08-03T07:05:23.110Z,101445.78
2022-08-03T07:07:44.955Z,101451.00
2022-08-03T07:10:08.896Z,101445.72
2022-08-03T07:12:32.362Z,101456.13
2022-08-03T07:15:00.375Z,101451.19
2022-08-03T07:17:23.530Z,101454.72
2022-08-03T07:19:45.454Z,101455.44
2022-08-03T07:22:08.785Z,101458.66
2022-08-03T07:24:30.711Z,101455.00
2022-08-03T07:26:52.760Z,101453.72
2022-08-03T07:29:15.349Z,101457.69
2022-08-03T07:31:38.553Z,101465.25
2022-08-03T07:34:00.341Z,101461.09
2022-08-03T07:36:23.222Z,101468.22
2022-08-03T07:38:45.012Z,101466.53
2022-08-03T07:41:06.968Z,101466.94
2022-08-03T07:43:28.792Z,101465.22
2022-08-03T07:45:50.742Z,101461.16
2022-08-03T07:48:12.889Z,101464.69
2022-08-03T07:50:34.722Z,101462.59
2022-08-03T07:52:57.908Z,101466.91
2022-08-03T07:55:24.049Z,101468.06
2022-08-03T07:57:46.286Z,101461.56
2022-08-03T08:00:17.070Z,101466.34
2022-08-03T08:02:39.077Z,101461.84
2022-08-03T08:05:05.333Z,101450.78
2022-08-03T08:07:27.625Z,101457.53
2022-08-03T08:09:49.450Z,101458.47
2022-08-03T08:12:15.131Z,101459.97
2022-08-03T08:14:37.718Z,101467.91
2022-08-03T08:17:00.293Z,101456.06
2022-08-03T08:19:24.376Z,101455.19
2022-08-03T08:21:53.872Z,101462.34
2022-08-03T08:24:24.997Z,101452.13
2022-08-03T08:26:46.969Z,101458.94
2022-08-03T08:29:09.177Z,101454.25
2022-08-03T08:31:31.069Z,101458.91
2022-08-03T08:34:08.213Z,101457.13
2022-08-03T08:36:30.017Z,101457.00
2022-08-03T08:38:52.169Z,101454.72
2022-08-03T08:41:15.280Z,101457.28
2022-08-03T08:43:37.347Z,101459.47
2022-08-03T08:46:00.146Z,101457.59
2022-08-03T08:48:25.974Z,101450.09
2022-08-03T08:50:52.353Z,101449.16
2022-08-03T08:53:18.338Z,101452.91
2022-08-03T08:55:59.019Z,101454.00
2022-08-03T08:58:23.435Z,101457.91
2022-08-03T09:00:45.797Z,101454.91
2022-08-03T09:03:07.727Z,101457.59
2022-08-03T09:05:55.012Z,101450.50
2022-08-03T09:08:14.995Z,101448.81
2022-08-03T09:10:36.912Z,101438.19
2022-08-03T09:13:00.009Z,101451.03
2022-08-03T09:15:33.136Z,101452.91
2022-08-03T09:17:58.327Z,101452.31
2022-08-03T09:20:22.243Z,101455.25
2022-08-03T09:23:24.691Z,101443.38
2022-08-03T09:25:47.239Z,101457.69
2022-08-03T09:28:52.589Z,101449.09
2022-08-03T09:31:00.616Z,101444.59
2022-08-03T09:33:23.147Z,101448.91
2022-08-03T09:35:57.489Z,101448.72
2022-08-03T09:38:26.376Z,101444.09
2022-08-03T09:40:48.395Z,101438.22
2022-08-03T09:43:12.724Z,101443.72
2022-08-03T09:45:36.737Z,101446.72
2022-08-03T09:48:26.185Z,101451.88
2022-08-03T09:50:51.072Z,101446.25
2022-08-03T09:53:22.406Z,101462.84
2022-08-03T09:56:34.856Z,101452.78
2022-08-03T09:58:48.100Z,101453.13
2022-08-03T10:01:23.631Z,101451.56
2022-08-03T10:04:03.153Z,101452.13
2022-08-03T10:06:29.001Z,101448.59
2022-08-03T10:09:13.940Z,101452.91
2022-08-03T10:11:41.806Z,101446.56
2022-08-03T10:14:06.657Z,101448.41
2022-08-03T10:16:38.006Z,101436.47
2022-08-03T10:19:00.083Z,101448.72
2022-08-03T10:21:22.558Z,101443.94
2022-08-03T10:23:44.742Z,101432.41
2022-08-03T10:26:12.241Z,101439.00
2022-08-03T10:28:49.076Z,101442.28
2022-08-03T10:31:14.072Z,101434.72
2022-08-03T10:33:51.532Z,101430.41
2022-08-03T10:36:16.887Z,101436.50
2022-08-03T10:38:52.496Z,101429.31
2022-08-03T10:41:20.472Z,101425.00
2022-08-03T10:44:03.083Z,101420.56
2022-08-03T10:46:27.579Z,101416.81
2022-08-03T10:48:52.623Z,101418.13
2022-08-03T10:51:15.658Z,101421.22
2022-08-03T10:53:51.528Z,101417.53
2022-08-03T10:56:58.627Z,101414.75
2022-08-03T10:59:48.429Z,101404.19
2022-08-03T11:02:10.277Z,101405.38
2022-08-03T11:04:32.119Z,101400.66
2022-08-03T11:07:16.600Z,101400.13
2022-08-03T11:09:49.971Z,101394.25
2022-08-03T11:12:32.516Z,101384.41
2022-08-03T11:14:57.096Z,101391.78
2022-08-03T11:17:19.772Z,101388.78
2022-08-03T11:19:57.390Z,101388.09
2022-08-03T11:22:22.238Z,101382.06
2022-08-03T11:24:46.444Z,101375.03
2022-08-03T11:27:14.804Z,101381.06
2022-08-03T11:29:36.853Z,101375.25
2022-08-03T11:31:58.778Z,101381.44
2022-08-03T11:34:20.810Z,101375.19
2022-08-03T11:37:28.720Z,101379.72
2022-08-03T11:39:54.797Z,101382.78
2022-08-03T11:42:23.408Z,101375.63
2022-08-03T11:44:47.614Z,101378.47
2022-08-03T11:47:17.745Z,101379.41
2022-08-03T11:49:40.735Z,101376.38
2022-08-03T11:52:02.904Z,101380.00
2022-08-03T11:54:25.819Z,101377.97
2022-08-03T11:56:51.014Z,101387.34
2022-08-03T11:59:20.154Z,101380.88
2022-08-03T12:01:42.860Z,101383.28
2022-08-03T12:04:05.915Z,101388.53
2022-08-03T12:06:27.752Z,101387.41
2022-08-03T12:08:49.548Z,101381.88
2022-08-03T12:11:15.351Z,101389.97
2022-08-03T12:14:05.773Z,101385.84
2022-08-03T12:16:25.577Z,101378.84
2022-08-03T12:19:01.579Z,101382.22
2022-08-03T12:21:24.751Z,101376.81
2022-08-03T12:23:46.608Z,101383.31
2022-08-03T12:26:10.391Z,101387.91
2022-08-03T12:28:37.885Z,101391.53
2022-08-03T12:31:07.906Z,101378.41
2022-08-03T12:33:30.324Z,101384.88
2022-08-03T12:36:11.086Z,101383.59
2022-08-03T12:38:37.543Z,101383.59
2022-08-03T12:41:16.712Z,101384.56
2022-08-03T12:43:39.868Z,101383.16
2022-08-03T12:46:14.889Z,101375.88
2022-08-03T12:48:36.945Z,101389.16
2022-08-03T12:51:11.794Z,101384.88
2022-08-03T12:53:33.589Z,101387.75
2022-08-03T12:56:05.767Z,101380.44
2022-08-03T12:58:36.352Z,101376.00
2022-08-03T13:00:58.241Z,101376.63
2022-08-03T13:03:39.008Z,101368.38
2022-08-03T13:06:02.183Z,101374.88
2022-08-03T13:08:25.880Z,101370.13
2022-08-03T13:10:48.565Z,101371.03
2022-08-03T13:13:10.823Z,101363.69
2022-08-03T13:15:33.531Z,101369.25
2022-08-03T13:18:00.622Z,101365.53
2022-08-03T13:20:23.976Z,101353.28
2022-08-03T13:22:49.028Z,101364.09
2022-08-03T13:25:10.814Z,101365.69
2022-08-03T13:28:03.487Z,101361.28
2022-08-03T13:30:27.526Z,101357.00
2022-08-03T13:32:52.145Z,101350.59
2022-08-03T13:35:16.619Z,101365.63
2022-08-03T13:37:38.971Z,101351.03
2022-08-03T13:40:05.519Z,101355.22
2022-08-03T13:42:30.683Z,101354.75
2022-08-03T13:44:52.614Z,101361.44
2022-08-03T13:47:14.438Z,101359.03
2022-08-03T13:49:37.390Z,101353.03
2022-08-03T13:51:59.402Z,101353.88
2022-08-03T13:54:21.247Z,101357.13
2022-08-03T13:56:48.820Z,101356.63
2022-08-03T13:59:11.070Z,101358.22
2022-08-03T14:01:54.192Z,101352.03
2022-08-03T14:04:21.817Z,101353.81
2022-08-03T14:06:45.912Z,101350.25
2022-08-03T14:09:07.908Z,101344.78
2022-08-03T14:12:07.570Z,101350.56
2022-08-03T14:14:12.685Z,101346.53
2022-08-03T14:16:35.896Z,101349.84
2022-08-03T14:18:57.779Z,101345.31
2022-08-03T14:21:20.473Z,101327.78
2022-08-03T14:23:42.352Z,101337.75
2022-08-03T14:26:08.506Z,101330.81
2022-08-03T14:28:30.289Z,101338.19
2022-08-03T14:30:54.492Z,101332.47
2022-08-03T14:33:16.479Z,101338.50
2022-08-03T14:35:38.683Z,101328.81
2022-08-03T14:38:00.515Z,101323.28
2022-08-03T14:40:22.523Z,101316.09
2022-08-03T14:42:44.573Z,101314.50
2022-08-03T14:45:09.631Z,101303.69
2022-08-03T14:50:30.653Z,101299.69
2022-08-03T14:50:31.052Z,101301.09
2022-08-03T14:53:05.171Z,101306.41
2022-08-03T14:55:27.405Z,101306.88
2022-08-03T14:58:02.897Z,101299.88
2022-08-03T15:00:24.826Z,101304.19
2022-08-03T15:02:46.703Z,101296.25
2022-08-03T15:05:10.791Z,101292.31
2022-08-03T15:07:32.791Z,101291.50
2022-08-03T15:09:55.143Z,101297.22
2022-08-03T15:12:17.014Z,101293.44
2022-08-03T15:14:39.114Z,101284.50
2022-08-03T15:17:01.587Z,101285.53
2022-08-03T15:20:01.077Z,101287.66
2022-08-03T15:22:05.366Z,101284.56
2022-08-03T15:24:31.020Z,101293.81
2022-08-03T15:26:53.378Z,101282.38
2022-08-03T15:30:05.082Z,101283.78
2022-08-03T15:31:57.271Z,101283.38
2022-08-03T15:34:19.085Z,101280.38
2022-08-03T15:36:40.985Z,101277.63
2022-08-03T15:39:04.570Z,101271.91
2022-08-03T15:41:26.553Z,101278.81
2022-08-03T15:43:48.390Z,101269.25
2022-08-03T15:46:28.837Z,101269.56
2022-08-03T15:48:51.501Z,101277.66
2022-08-03T15:51:13.699Z,101271.56
2022-08-03T15:53:36.721Z,101268.44
2022-08-03T15:55:59.387Z,101267.03
2022-08-03T15:59:10.240Z,101260.31
2022-08-03T16:01:06.365Z,101261.72
2022-08-03T16:03:34.205Z,101262.34
2022-08-03T16:05:56.065Z,101260.84
2022-08-03T16:08:17.840Z,101257.28
2022-08-03T16:10:40.627Z,101256.69
2022-08-03T16:13:02.564Z,101246.00
2022-08-03T16:15:24.833Z,101255.78
2022-08-03T16:17:46.691Z,101253.84
2022-08-03T16:20:30.949Z,101249.72
2022-08-03T16:22:53.129Z,101248.56
2022-08-03T16:25:17.421Z,101251.72
2022-08-03T16:28:03.263Z,101256.91
2022-08-03T16:30:21.647Z,101253.53
2022-08-03T16:32:45.523Z,101249.88
2022-08-03T16:35:08.508Z,101244.78
2022-08-03T16:37:39.235Z,101247.72
2022-08-03T16:40:02.015Z,101243.41
2022-08-03T16:42:23.893Z,101249.59
2022-08-03T16:44:45.696Z,101238.16
2022-08-03T16:47:07.513Z,101248.03
2022-08-03T16:49:54.657Z,101245.16
2022-08-03T16:52:18.238Z,101241.31
2022-08-03T16:54:40.783Z,101241.31
2022-08-03T16:57:02.808Z,101244.38
2022-08-03T16:59:36.025Z,101237.44
2022-08-03T17:02:00.146Z,101239.31
2022-08-03T17:04:22.098Z,101241.91
2022-08-03T17:06:45.389Z,101236.69
2022-08-03T17:09:18.924Z,101231.78
2022-08-03T17:11:47.151Z,101237.50
2022-08-03T17:14:12.227Z,101231.84
2022-08-03T17:16:34.548Z,101228.31
2022-08-03T17:19:05.738Z,101231.53
2022-08-03T17:21:32.419Z,101235.72
2022-08-03T17:24:41.021Z,101235.34
2022-08-03T17:28:42.395Z,101236.25
2022-08-03T17:30:00.886Z,101235.56
2022-08-03T17:32:26.244Z,101231.75
2022-08-03T17:34:49.239Z,101238.72
2022-08-03T17:37:27.230Z,101231.91
2022-08-03T17:39:59.065Z,101236.84
2022-08-03T17:42:30.381Z,101229.38
2022-08-03T17:44:56.260Z,101229.25
2022-08-03T17:47:19.211Z,101226.84
2022-08-03T17:49:43.445Z,101234.13
2022-08-03T17:52:19.701Z,101242.41
2022-08-03T17:55:56.581Z,101236.84
2022-08-03T17:58:03.297Z,101237.16
2022-08-03T18:00:45.359Z,101237.78
2022-08-03T18:03:58.245Z,101235.59
2022-08-03T18:06:28.843Z,101238.41
2022-08-03T18:08:55.368Z,101232.69
2022-08-03T18:11:22.820Z,101235.25
2022-08-03T18:14:16.559Z,101230.34
2022-08-03T18:16:52.277Z,101232.56
2022-08-03T18:19:15.860Z,101236.53
2022-08-03T18:22:03.382Z,101236.22
2022-08-03T18:24:25.787Z,101229.25
2022-08-03T18:26:50.032Z,101231.25
2022-08-03T18:29:13.875Z,101234.94
2022-08-03T18:32:02.822Z,101232.09
2022-08-03T18:34:32.839Z,101231.44
2022-08-03T18:37:07.291Z,101228.91
2022-08-03T18:39:31.779Z,101230.97
2022-08-03T18:41:54.428Z,101239.97
2022-08-03T18:44:53.044Z,101224.16
2022-08-03T18:47:16.574Z,101224.31
2022-08-03T18:50:00.811Z,101223.06
2022-08-03T18:52:42.069Z,101223.53
2022-08-03T18:55:33.751Z,101225.03
2022-08-03T18:58:17.934Z,101228.38
2022-08-03T19:01:58.401Z,101231.13
2022-08-03T19:04:49.685Z,101238.38
2022-08-03T19:07:22.154Z,101241.06
2022-08-03T19:09:55.383Z,101238.84
2022-08-03T19:12:30.761Z,101244.25
2022-08-03T19:15:06.248Z,101243.47
2022-08-03T19:17:41.831Z,101243.94
2022-08-03T19:20:06.101Z,101247.91
2022-08-03T19:22:28.305Z,101250.22
2022-08-03T19:24:55.163Z,101255.31
2022-08-03T19:27:20.295Z,101251.25
2022-08-03T19:29:58.906Z,101252.03
2022-08-03T19:32:24.487Z,101257.72
2022-08-03T19:34:51.310Z,101261.97
2022-08-03T19:37:15.452Z,101254.00
2022-08-03T19:39:37.430Z,101259.09
2022-08-03T19:42:18.477Z,101263.84
2022-08-03T19:44:51.229Z,101258.16
2022-08-03T19:47:33.832Z,101263.31
2022-08-03T19:50:05.909Z,101265.56
2022-08-03T19:52:39.338Z,101269.81
2022-08-03T19:55:09.710Z,101262.19
2022-08-03T19:57:37.753Z,101262.41
2022-08-03T20:00:03.540Z,101252.06
2022-08-03T20:02:29.645Z,101264.72
2022-08-03T20:04:51.842Z,101263.66
2022-08-03T20:07:20.626Z,101262.19
2022-08-03T20:09:46.380Z,101264.75
2022-08-03T20:12:16.804Z,101266.53
2022-08-03T20:14:40.448Z,101270.34
2022-08-03T20:17:04.297Z,101270.09
2022-08-03T20:19:32.607Z,101262.19
2022-08-03T20:21:54.911Z,101269.63
2022-08-03T20:24:27.019Z,101270.13
2022-08-03T20:26:54.520Z,101261.38
2022-08-03T20:29:42.728Z,101264.72
2022-08-03T20:32:10.231Z,101262.50
2022-08-03T20:34:32.168Z,101259.41
2022-08-03T20:36:54.205Z,101259.56
2022-08-03T20:39:16.191Z,101268.59
2022-08-03T20:41:38.250Z,101259.81
2022-08-03T20:44:01.005Z,101265.19
2022-08-03T20:46:32.187Z,101264.47
2022-08-03T20:49:03.852Z,101267.44
2022-08-03T20:51:49.602Z,101264.69
2022-08-03T20:54:22.583Z,101265.19
2022-08-03T20:56:52.756Z,101267.75
2022-08-03T20:59:15.322Z,101268.25
2022-08-03T21:01:37.979Z,101265.16
2022-08-03T21:04:00.337Z,101259.19
2022-08-03T21:06:37.493Z,101261.31
2022-08-03T21:09:06.798Z,101263.41
2022-08-03T21:11:44.363Z,101270.38
2022-08-03T21:14:39.332Z,101263.19
2022-08-03T21:17:14.069Z,101258.00
2022-08-03T21:19:52.103Z,101258.88
2022-08-03T21:22:22.982Z,101258.66
2022-08-03T21:24:49.446Z,101253.56
2022-08-03T21:27:14.979Z,101247.25
2022-08-03T21:29:53.230Z,101248.91
2022-08-03T21:32:32.911Z,101243.75
2022-08-03T21:34:57.192Z,101246.28
2022-08-03T21:37:18.986Z,101241.16
2022-08-03T21:39:50.566Z,101242.06
2022-08-03T21:42:13.876Z,101241.41
2022-08-03T21:44:35.689Z,101237.78
2022-08-03T21:47:00.935Z,101239.44
2022-08-03T21:50:05.661Z,101234.31
2022-08-03T21:52:09.397Z,101233.56
2022-08-03T21:54:41.421Z,101240.47
2022-08-03T21:57:12.999Z,101228.09
2022-08-03T21:59:41.435Z,101233.84
2022-08-03T22:02:04.442Z,101237.22
2022-08-03T22:04:38.060Z,101230.88
2022-08-03T22:07:09.648Z,101233.88
2022-08-03T22:09:34.189Z,101234.41
2022-08-03T22:11:56.170Z,101235.69
2022-08-03T22:14:18.139Z,101231.75
2022-08-03T22:16:41.267Z,101232.66
2022-08-03T22:19:03.249Z,101226.69
2022-08-03T22:21:36.386Z,101231.59
2022-08-03T22:24:00.553Z,101229.25
2022-08-03T22:26:34.963Z,101229.66
2022-08-03T22:28:59.690Z,101224.88
2022-08-03T22:31:37.613Z,101225.69
2022-08-03T22:34:03.940Z,101222.53
2022-08-03T22:36:26.152Z,101224.50
2022-08-03T22:38:48.568Z,101218.53
2022-08-03T22:41:10.824Z,101216.91
2022-08-03T22:43:36.926Z,101229.03
2022-08-03T22:46:09.160Z,101225.44
2022-08-03T22:48:40.813Z,101221.44
2022-08-03T22:51:05.435Z,101223.06
2022-08-03T22:53:27.988Z,101221.91
2022-08-03T22:55:51.890Z,101221.53
2022-08-03T22:58:15.995Z,101213.88
2022-08-03T23:00:47.513Z,101209.47
2022-08-03T23:03:20.149Z,101213.16
2022-08-03T23:06:01.377Z,101205.09
2022-08-03T23:08:27.548Z,101209.53
2022-08-03T23:10:52.430Z,101216.03
2022-08-03T23:13:19.612Z,101214.41
2022-08-03T23:15:42.526Z,101210.41
2022-08-03T23:18:06.423Z,101212.06
2022-08-03T23:20:30.048Z,101208.84
2022-08-03T23:22:54.449Z,101205.28
2022-08-03T23:25:17.432Z,101203.69
2022-08-03T23:27:42.226Z,101221.81
2022-08-03T23:30:04.496Z,101213.34
2022-08-03T23:32:28.902Z,101208.13
2022-08-03T23:35:11.123Z,101207.75
2022-08-03T23:37:33.425Z,101202.97
2022-08-03T23:40:16.100Z,101209.03
2022-08-03T23:42:39.466Z,101204.59
2022-08-03T23:45:05.982Z,101207.84
2022-08-03T23:47:46.477Z,101209.47
2022-08-03T23:50:09.553Z,101208.72
2022-08-03T23:52:56.835Z,101203.94
2022-08-03T23:55:45.798Z,101203.16
2022-08-03T23:58:47.345Z,101201.59
